Time;durP1;ratioP1;P1;durP2;ratioP2;P2;SDS_P1;SDS_P2;PMS_P1;PMS_P2;Temp;Humidity;BMP_temperature;BMP_pressure;BME280_temperature;BME280_humidity;BME280_pressure;Samples;Min_cycle;Max_cycle;Signal;HPM_P1;HPM_P2
2021/12/23 00:02:05;;;;;;;1999.90;999.90;;;;;;;;;;5013761;28;20403;-78
2021/12/23 00:04:31;;;;;;;1999.90;999.90;;;;;;;;;;5018909;28;20708;-78
2021/12/23 00:06:56;;;;;;;1546.45;756.33;;;;;;;;;;4997649;28;20403;-77
2021/12/23 00:09:26;;;;;;;1999.90;999.90;;;;;;;;;;4997422;28;20037;-78
2021/12/23 00:11:52;;;;;;;1999.90;999.90;;;;;;;;;;4998302;28;20041;-78
2021/12/23 00:14:17;;;;;;;1999.90;999.90;;;;;;;;;;5013675;28;20159;-77
2021/12/23 00:16:45;;;;;;;1999.90;999.90;;;;;;;;;;5013277;28;20372;-78
2021/12/23 00:19:23;;;;;;;1999.90;999.90;;;;;;;;;;5046165;28;20033;-78
2021/12/23 00:24:34;;;;;;;1999.90;999.90;;;;;;;;;;5044411;28;20031;-78
2021/12/23 00:26:59;;;;;;;1999.90;999.90;;;;;;;;;;5009698;28;20443;-78
2021/12/23 00:29:25;;;;;;;1999.90;999.90;;;;;;;;;;5043171;28;20124;-77
2021/12/23 00:31:50;;;;;;;1999.90;999.90;;;;;;;;;;5013488;28;20105;-77
2021/12/23 00:34:16;;;;;;;1999.90;999.90;;;;;;;;;;4993650;28;20026;-78
2021/12/23 00:36:44;;;;;;;1999.90;999.90;;;;;;;;;;4994117;28;20492;-78
2021/12/23 00:39:11;;;;;;;1999.90;999.90;;;;;;;;;;4978354;28;20514;-78
2021/12/23 00:41:37;;;;;;;1999.90;999.90;;;;;;;;;;5013086;28;20060;-78
2021/12/23 00:44:03;;;;;;;1999.90;999.90;;;;;;;;;;5026977;28;20114;-78
2021/12/23 00:46:28;;;;;;;1999.90;999.90;;;;;;;;;;5034055;28;20479;-78
2021/12/23 00:48:54;;;;;;;1999.90;999.90;;;;;;;;;;5013398;28;20211;-78
2021/12/23 00:51:19;;;;;;;1999.90;999.90;;;;;;;;;;4996430;28;20034;-78
2021/12/23 00:53:48;;;;;;;1999.90;999.90;;;;;;;;;;4996855;28;20037;-77
2021/12/23 00:56:14;;;;;;;1999.90;999.90;;;;;;;;;;5013870;28;20104;-77
2021/12/23 00:58:40;;;;;;;1999.90;999.90;;;;;;;;;;5016145;28;20091;-78
2021/12/23 01:01:05;;;;;;;1999.90;999.90;;;;;;;;;;5033020;28;20107;-78
2021/12/23 01:03:31;;;;;;;1999.90;999.90;;;;;;;;;;5000556;28;20072;-78
2021/12/23 01:05:56;;;;;;;1999.90;999.90;;;;;;;;;;5025457;28;20033;-77
2021/12/23 01:08:23;;;;;;;1999.90;999.90;;;;;;;;;;5016790;28;20101;-77
2021/12/23 01:10:50;;;;;;;1999.90;999.90;;;;;;;;;;5016871;28;20033;-77
2021/12/23 01:13:18;;;;;;;1999.90;999.90;;;;;;;;;;5000918;28;20033;-77
2021/12/23 01:15:59;;;;;;;1999.90;999.90;;;;;;;;;;5000221;28;20051;-77
2021/12/23 01:18:24;;;;;;;1999.90;999.90;;;;;;;;;;5048045;28;20029;-77
2021/12/23 01:20:54;;;;;;;1999.90;999.90;;;;;;;;;;5029690;28;20425;-77
2021/12/23 01:23:21;;;;;;;1999.90;999.90;;;;;;;;;;5029116;28;20488;-77
2021/12/23 01:25:46;;;;;;;1999.90;999.90;;;;;;;;;;5013773;28;20025;-77
2021/12/23 01:28:12;;;;;;;1999.90;999.90;;;;;;;;;;4995956;28;20602;-77
2021/12/23 01:30:39;;;;;;;1999.90;999.90;;;;;;;;;;5014093;28;20040;-77
2021/12/23 01:33:05;;;;;;;1999.90;999.90;;;;;;;;;;5015535;28;20060;-77
2021/12/23 01:35:30;;;;;;;1999.90;999.90;;;;;;;;;;5016252;28;20036;-77
2021/12/23 01:37:56;;;;;;;1206.13;551.40;;;;;;;;;;5015910;28;20033;-78
2021/12/23 01:40:24;;;;;;;1999.90;999.90;;;;;;;;;;5004946;28;20038;-78
2021/12/23 01:42:49;;;;;;;1999.90;999.90;;;;;;;;;;5023838;28;20038;-77
2021/12/23 01:45:17;;;;;;;1999.90;999.90;;;;;;;;;;4986769;28;20096;-77
2021/12/23 01:47:43;;;;;;;1999.90;999.90;;;;;;;;;;4994534;28;20025;-77
2021/12/23 01:50:09;;;;;;;1999.90;999.90;;;;;;;;;;5015931;28;20499;-77
2021/12/23 01:52:35;;;;;;;1999.90;999.90;;;;;;;;;;4999571;28;20045;-77
2021/12/23 01:55:01;;;;;;;1999.90;999.90;;;;;;;;;;5016048;28;20379;-77
2021/12/23 01:57:26;;;;;;;1999.90;999.90;;;;;;;;;;4999449;28;20044;-77
2021/12/23 01:59:52;;;;;;;1999.90;999.90;;;;;;;;;;5016032;28;20044;-77
2021/12/23 02:02:17;;;;;;;1999.90;999.90;;;;;;;;;;5015425;28;20095;-77
2021/12/23 02:04:43;;;;;;;1999.90;999.90;;;;;;;;;;5016080;28;20094;-77
2021/12/23 02:07:08;;;;;;;1999.90;999.90;;;;;;;;;;5015535;28;20068;-77
2021/12/23 02:09:34;;;;;;;1999.90;999.90;;;;;;;;;;5015314;28;20104;-77
2021/12/23 02:11:59;;;;;;;1999.90;999.90;;;;;;;;;;5020213;28;20033;-77
2021/12/23 02:14:25;;;;;;;1999.90;999.90;;;;;;;;;;4999481;28;20066;-77
2021/12/23 02:16:50;;;;;;;1999.90;999.90;;;;;;;;;;5000812;28;20022;-77
2021/12/23 02:19:16;;;;;;;1999.90;999.90;;;;;;;;;;4996011;28;20106;-77
2021/12/23 02:21:43;;;;;;;1999.90;999.90;;;;;;;;;;4997192;28;20136;-77
2021/12/23 02:24:08;;;;;;;1999.90;999.90;;;;;;;;;;4982574;28;20123;-77
2021/12/23 02:26:41;;;;;;;1999.90;999.90;;;;;;;;;;5028642;28;20046;-77
2021/12/23 02:29:06;;;;;;;1999.90;999.90;;;;;;;;;;4982863;28;20068;-77
2021/12/23 02:31:32;;;;;;;1999.90;999.90;;;;;;;;;;5014961;28;20128;-77
2021/12/23 02:33:57;;;;;;;1999.90;999.90;;;;;;;;;;5007904;28;20026;-77
2021/12/23 02:36:23;;;;;;;1999.90;999.90;;;;;;;;;;4998174;28;20033;-77
2021/12/23 02:38:48;;;;;;;1999.90;999.90;;;;;;;;;;4999120;28;20033;-77
2021/12/23 02:41:14;;;;;;;1999.90;999.90;;;;;;;;;;4988230;28;20041;-77
2021/12/23 02:43:39;;;;;;;1999.90;999.90;;;;;;;;;;5041137;28;20065;-77
2021/12/23 02:46:05;;;;;;;1999.90;999.90;;;;;;;;;;5047636;28;20076;-77
2021/12/23 02:48:34;;;;;;;1999.90;999.90;;;;;;;;;;5047799;28;20041;-77
2021/12/23 02:51:00;;;;;;;1999.90;999.90;;;;;;;;;;5014804;28;20376;-77
2021/12/23 02:53:25;;;;;;;1999.90;999.90;;;;;;;;;;4998714;28;20037;-77
2021/12/23 02:55:54;;;;;;;1999.90;999.90;;;;;;;;;;5014693;28;20067;-77
2021/12/23 02:58:19;;;;;;;1999.90;999.90;;;;;;;;;;4998691;28;20527;-77
2021/12/23 03:00:45;;;;;;;1999.90;999.90;;;;;;;;;;4998220;28;20050;-77
2021/12/23 03:03:10;;;;;;;1999.90;999.90;;;;;;;;;;5004766;28;20025;-77
2021/12/23 03:05:36;;;;;;;1999.90;999.90;;;;;;;;;;5014606;28;20128;-77
2021/12/23 03:08:03;;;;;;;1999.90;999.90;;;;;;;;;;4995153;28;20041;-77
2021/12/23 03:10:29;;;;;;;1999.90;999.90;;;;;;;;;;5011489;28;20038;-77
2021/12/23 03:12:55;;;;;;;1999.90;999.90;;;;;;;;;;4995094;28;20034;-77
2021/12/23 03:15:20;;;;;;;1999.90;999.90;;;;;;;;;;4997085;28;20052;-77
2021/12/23 03:17:46;;;;;;;1999.90;999.90;;;;;;;;;;5013320;28;20029;-77
2021/12/23 03:20:11;;;;;;;1999.90;999.90;;;;;;;;;;4997037;28;20117;-77
2021/12/23 03:22:37;;;;;;;1999.90;999.90;;;;;;;;;;4981774;28;20033;-77
2021/12/23 03:25:02;;;;;;;1999.90;999.90;;;;;;;;;;5014105;28;20045;-77
2021/12/23 03:27:28;;;;;;;1999.90;999.90;;;;;;;;;;5045068;28;20391;-77
2021/12/23 03:29:56;;;;;;;1999.90;999.90;;;;;;;;;;4998134;28;20077;-77
2021/12/23 03:32:22;;;;;;;1999.90;999.90;;;;;;;;;;5014774;28;20029;-77
2021/12/23 03:34:47;;;;;;;1999.90;999.90;;;;;;;;;;5014213;28;20036;-77
2021/12/23 03:37:13;;;;;;;1999.90;999.90;;;;;;;;;;5013815;28;20372;-77
2021/12/23 03:39:38;;;;;;;1999.90;999.90;;;;;;;;;;4997710;28;20076;-78
2021/12/23 03:42:04;;;;;;;1999.90;999.90;;;;;;;;;;4997190;28;20087;-77
2021/12/23 03:44:30;;;;;;;1999.90;999.90;;;;;;;;;;5047369;28;20068;-78
2021/12/23 03:46:55;;;;;;;1999.90;999.90;;;;;;;;;;5013224;28;20033;-77
2021/12/23 03:49:21;;;;;;;1999.90;999.90;;;;;;;;;;5013973;28;20037;-77
2021/12/23 03:51:46;;;;;;;1999.90;999.90;;;;;;;;;;5013841;28;20084;-77
2021/12/23 03:54:12;;;;;;;1999.90;999.90;;;;;;;;;;5010372;28;20050;-77
2021/12/23 03:56:37;;;;;;;1999.90;999.90;;;;;;;;;;5023601;28;20034;-77
2021/12/23 03:59:03;;;;;;;1999.90;999.90;;;;;;;;;;4997679;28;20033;-77
2021/12/23 04:01:28;;;;;;;1999.90;999.90;;;;;;;;;;5013375;28;20052;-77
2021/12/23 04:03:54;;;;;;;1999.90;999.90;;;;;;;;;;4994431;28;20108;-77
2021/12/23 04:06:20;;;;;;;1999.90;999.90;;;;;;;;;;5010610;28;20515;-77
2021/12/23 04:08:45;;;;;;;1999.90;999.90;;;;;;;;;;5016088;28;20037;-77
2021/12/23 04:11:11;;;;;;;1999.90;999.90;;;;;;;;;;4994740;28;20380;-77
2021/12/23 04:13:36;;;;;;;1999.90;999.90;;;;;;;;;;5046554;28;20391;-78
2021/12/23 04:16:02;;;;;;;1999.90;999.90;;;;;;;;;;4984765;28;20092;-77
2021/12/23 04:18:27;;;;;;;1999.90;999.90;;;;;;;;;;5017772;28;20488;-77
2021/12/23 04:20:53;;;;;;;1999.90;999.90;;;;;;;;;;4980774;28;20030;-77
2021/12/23 04:23:20;;;;;;;1999.90;999.90;;;;;;;;;;5013782;28;20070;-77
2021/12/23 04:25:46;;;;;;;1999.90;999.90;;;;;;;;;;4994822;28;20025;-77
2021/12/23 04:28:11;;;;;;;1999.90;999.90;;;;;;;;;;4995492;28;20039;-77
2021/12/23 04:30:37;;;;;;;1999.90;999.90;;;;;;;;;;4996947;28;20049;-77
2021/12/23 04:33:02;;;;;;;1999.90;999.90;;;;;;;;;;5016861;28;20503;-77
2021/12/23 04:35:28;;;;;;;1999.90;999.90;;;;;;;;;;5028489;28;20048;-77
2021/12/23 04:37:53;;;;;;;1999.90;999.90;;;;;;;;;;5001258;28;20037;-77
2021/12/23 04:40:19;;;;;;;1999.90;999.90;;;;;;;;;;5000881;28;20045;-77
2021/12/23 04:42:44;;;;;;;1999.90;999.90;;;;;;;;;;5000797;28;20407;-77
2021/12/23 04:45:10;;;;;;;1999.90;999.90;;;;;;;;;;5017058;28;20040;-78
2021/12/23 04:47:36;;;;;;;1999.90;999.90;;;;;;;;;;5000736;28;20127;-77
2021/12/23 04:50:01;;;;;;;1999.90;999.90;;;;;;;;;;4997470;28;20500;-78
2021/12/23 04:52:26;;;;;;;1999.90;999.90;;;;;;;;;;5033917;28;20558;-77
2021/12/23 04:54:52;;;;;;;1999.90;999.90;;;;;;;;;;5016451;28;20052;-77
2021/12/23 04:57:17;;;;;;;1999.90;999.90;;;;;;;;;;5016765;28;20041;-77
2021/12/23 04:59:43;;;;;;;1999.90;999.90;;;;;;;;;;5049874;28;20064;-77
2021/12/23 05:02:08;;;;;;;1999.90;999.90;;;;;;;;;;5000180;28;20042;-77
2021/12/23 05:04:34;;;;;;;1999.90;999.90;;;;;;;;;;5027667;28;20384;-77
2021/12/23 05:06:59;;;;;;;1999.90;999.90;;;;;;;;;;4981107;28;20099;-77
2021/12/23 05:09:25;;;;;;;1999.90;999.90;;;;;;;;;;4997037;28;20030;-77
2021/12/23 05:11:50;;;;;;;1999.90;999.90;;;;;;;;;;4997127;28;20199;-77
2021/12/23 05:14:16;;;;;;;1999.90;999.90;;;;;;;;;;4980980;28;20088;-78
2021/12/23 05:16:41;;;;;;;1999.90;999.90;;;;;;;;;;5012744;28;20044;-77
2021/12/23 05:19:07;;;;;;;1999.90;999.90;;;;;;;;;;5050275;28;20411;-77
2021/12/23 05:21:32;;;;;;;1999.90;999.90;;;;;;;;;;5049500;28;20061;-77
2021/12/23 05:23:57;;;;;;;1999.90;999.90;;;;;;;;;;5032524;28;20407;-78
2021/12/23 05:26:23;;;;;;;1999.90;999.90;;;;;;;;;;4996727;28;20032;-77
2021/12/23 05:28:49;;;;;;;1999.90;999.90;;;;;;;;;;4997033;28;20029;-77
2021/12/23 05:31:15;;;;;;;1999.90;999.90;;;;;;;;;;4996661;28;20116;-77
2021/12/23 05:33:41;;;;;;;1999.90;999.90;;;;;;;;;;5013040;28;20032;-77
2021/12/23 05:36:07;;;;;;;1999.90;999.90;;;;;;;;;;4999740;28;20050;-77
2021/12/23 05:38:33;;;;;;;1999.90;999.90;;;;;;;;;;5016179;28;20113;-77
2021/12/23 05:40:58;;;;;;;1999.90;999.90;;;;;;;;;;5015855;28;20041;-77
2021/12/23 05:43:23;;;;;;;1999.90;999.90;;;;;;;;;;5014844;28;20037;-77
2021/12/23 05:45:49;;;;;;;1999.90;999.90;;;;;;;;;;5015852;28;20037;-77
2021/12/23 05:48:14;;;;;;;1999.90;999.90;;;;;;;;;;5032787;28;20026;-77
2021/12/23 05:50:40;;;;;;;1999.90;999.90;;;;;;;;;;4980251;28;20034;-78
2021/12/23 05:53:05;;;;;;;1999.90;999.90;;;;;;;;;;4996759;28;20041;-77
2021/12/23 05:55:31;;;;;;;1999.90;999.90;;;;;;;;;;4999108;28;20112;-78
2021/12/23 05:57:56;;;;;;;1999.90;999.90;;;;;;;;;;5016007;28;20037;-78
2021/12/23 06:00:24;;;;;;;1999.90;999.90;;;;;;;;;;4998641;28;20041;-78
2021/12/23 06:02:49;;;;;;;1999.90;999.90;;;;;;;;;;5031614;28;20037;-77
2021/12/23 06:05:15;;;;;;;1999.90;999.90;;;;;;;;;;4983056;28;20507;-78
2021/12/23 06:07:41;;;;;;;1999.90;999.90;;;;;;;;;;4998670;28;20541;-77
2021/12/23 06:10:07;;;;;;;1999.90;999.90;;;;;;;;;;5030296;28;20120;-77
2021/12/23 06:12:32;;;;;;;1999.90;999.90;;;;;;;;;;5015769;28;20037;-77
2021/12/23 06:14:58;;;;;;;1999.90;999.90;;;;;;;;;;5015398;28;20472;-77
2021/12/23 06:17:23;;;;;;;1999.90;999.90;;;;;;;;;;4999264;28;20060;-77
2021/12/23 06:19:48;;;;;;;1999.90;999.90;;;;;;;;;;5014835;28;20029;-77
2021/12/23 06:22:14;;;;;;;1999.90;999.90;;;;;;;;;;5048460;28;20518;-76
2021/12/23 06:24:44;;;;;;;1999.90;999.90;;;;;;;;;;5015752;28;20062;-77
2021/12/23 06:27:09;;;;;;;1999.90;999.90;;;;;;;;;;5015824;28;20033;-75
2021/12/23 06:29:35;;;;;;;1999.90;999.90;;;;;;;;;;5015529;28;20025;-83
2021/12/23 06:32:00;;;;;;;1999.90;999.90;;;;;;;;;;5014903;28;20079;-79
2021/12/23 06:34:26;;;;;;;1999.90;999.90;;;;;;;;;;4999135;28;20037;-83
2021/12/23 06:36:51;;;;;;;1999.90;999.90;;;;;;;;;;5015520;28;20030;-77
2021/12/23 06:39:17;;;;;;;1999.90;999.90;;;;;;;;;;4998026;28;20400;-79
2021/12/23 06:41:42;;;;;;;1999.90;999.90;;;;;;;;;;5012695;28;20125;-78
2021/12/23 06:44:07;;;;;;;1999.90;999.90;;;;;;;;;;5013151;28;20504;-78
2021/12/23 06:46:33;;;;;;;1999.90;999.90;;;;;;;;;;5013899;28;20041;-78
2021/12/23 06:48:58;;;;;;;1999.90;999.90;;;;;;;;;;4998818;28;20399;-77
2021/12/23 06:51:29;;;;;;;1999.90;999.90;;;;;;;;;;5048006;28;20426;-78
2021/12/23 06:53:57;;;;;;;1999.90;999.90;;;;;;;;;;5030885;28;20060;-78
2021/12/23 06:56:22;;;;;;;1999.90;999.90;;;;;;;;;;4998465;28;20029;-78
2021/12/23 06:58:49;;;;;;;1999.90;999.90;;;;;;;;;;5014441;28;20048;-77
2021/12/23 07:01:17;;;;;;;1999.90;999.90;;;;;;;;;;4998349;28;20035;-79
2021/12/23 07:06:47;;;;;;;1999.90;999.90;;;;;;;;;;5010280;28;20048;-78
2021/12/23 07:09:13;;;;;;;1999.90;999.90;;;;;;;;;;5015453;28;20022;-78
2021/12/23 07:11:39;;;;;;;1999.90;999.90;;;;;;;;;;5013867;28;20030;-78
2021/12/23 07:14:04;;;;;;;1541.82;756.70;;;;;;;;;;5015042;28;20120;-78
2021/12/23 07:16:29;;;;;;;1999.90;999.90;;;;;;;;;;5014250;28;20083;-77
2021/12/23 07:18:55;;;;;;;1999.90;999.90;;;;;;;;;;5030539;28;20040;-79
2021/12/23 07:21:21;;;;;;;1999.90;999.90;;;;;;;;;;5013623;28;20029;-76
2021/12/23 07:23:46;;;;;;;1999.90;999.90;;;;;;;;;;5011169;28;20064;-77
2021/12/23 07:26:12;;;;;;;1999.90;999.90;;;;;;;;;;5007308;28;20038;-76
2021/12/23 07:28:37;;;;;;;1999.90;999.90;;;;;;;;;;5003390;28;20030;-81
2021/12/23 07:31:03;;;;;;;1999.90;999.90;;;;;;;;;;4994253;28;20033;-80
2021/12/23 07:33:28;;;;;;;1999.90;999.90;;;;;;;;;;4978651;28;20026;-79
2021/12/23 07:35:54;;;;;;;1999.90;999.90;;;;;;;;;;4994798;28;20388;-82
2021/12/23 07:38:19;;;;;;;1999.90;999.90;;;;;;;;;;4978627;28;20435;-82
2021/12/23 07:40:46;;;;;;;1546.82;757.47;;;;;;;;;;4994792;28;20056;-82
2021/12/23 07:43:31;;;;;;;1999.90;999.90;;;;;;;;;;4994411;28;20029;-82
2021/12/23 07:45:57;;;;;;;1999.90;999.90;;;;;;;;;;4996741;28;20030;-82
2021/12/23 07:48:22;;;;;;;1999.90;999.90;;;;;;;;;;5010720;28;20052;-82
2021/12/23 07:50:48;;;;;;;1999.90;999.90;;;;;;;;;;5029228;28;20033;-82
2021/12/23 07:53:13;;;;;;;1999.90;999.90;;;;;;;;;;5014160;28;20049;-82
2021/12/23 07:55:42;;;;;;;1999.90;999.90;;;;;;;;;;4997181;28;20506;-82
2021/12/23 07:58:08;;;;;;;1999.90;999.90;;;;;;;;;;4998959;28;20056;-81
2021/12/23 08:00:34;;;;;;;1999.90;999.90;;;;;;;;;;4997483;28;20037;-81
2021/12/23 08:02:59;;;;;;;1999.90;999.90;;;;;;;;;;4985362;28;20041;-81
2021/12/23 08:05:24;;;;;;;1999.90;999.90;;;;;;;;;;4994126;28;20030;-82
2021/12/23 08:07:50;;;;;;;1999.90;999.90;;;;;;;;;;4994634;28;20056;-82
2021/12/23 08:10:16;;;;;;;1552.35;755.40;;;;;;;;;;4994234;28;20100;-82
2021/12/23 08:12:41;;;;;;;1999.90;999.90;;;;;;;;;;4994487;28;20033;-82
2021/12/23 08:15:07;;;;;;;1999.90;999.90;;;;;;;;;;4993882;28;20082;-82
2021/12/23 08:17:33;;;;;;;1999.90;999.90;;;;;;;;;;4993940;28;20073;-80
2021/12/23 08:19:58;;;;;;;1999.90;999.90;;;;;;;;;;4978039;28;20056;-82
2021/12/23 08:22:23;;;;;;;1999.90;999.90;;;;;;;;;;4994248;28;20046;-81
2021/12/23 08:24:49;;;;;;;1999.90;999.90;;;;;;;;;;4977652;28;20484;-82
2021/12/23 08:27:14;;;;;;;1999.90;999.90;;;;;;;;;;5024822;28;20048;-82
2021/12/23 08:29:40;;;;;;;1999.90;999.90;;;;;;;;;;4997437;28;20060;-82
2021/12/23 08:32:06;;;;;;;1999.90;999.90;;;;;;;;;;5030024;28;20030;-83
2021/12/23 08:34:34;;;;;;;1999.90;999.90;;;;;;;;;;5013758;28;20028;-83
2021/12/23 08:37:00;;;;;;;1999.90;999.90;;;;;;;;;;4998439;28;20380;-83
2021/12/23 08:39:25;;;;;;;1999.90;999.90;;;;;;;;;;4997036;28;20038;-83
2021/12/23 08:41:51;;;;;;;1999.90;999.90;;;;;;;;;;4997201;28;20153;-83
2021/12/23 08:44:17;;;;;;;1999.90;999.90;;;;;;;;;;5013693;28;20030;-83
2021/12/23 08:46:42;;;;;;;1999.90;999.90;;;;;;;;;;4996960;28;20041;-83
2021/12/23 08:49:08;;;;;;;1999.90;999.90;;;;;;;;;;4993954;28;20034;-83
2021/12/23 08:51:33;;;;;;;1999.90;999.90;;;;;;;;;;4993923;28;20046;-84
2021/12/23 08:53:59;;;;;;;1999.90;999.90;;;;;;;;;;4994216;28;20388;-84
2021/12/23 08:56:24;;;;;;;1999.90;999.90;;;;;;;;;;4978098;28;20123;-83
2021/12/23 08:58:50;;;;;;;1542.60;753.90;;;;;;;;;;4977667;28;20118;-84
2021/12/23 09:01:15;;;;;;;1999.90;999.90;;;;;;;;;;4977628;28;20381;-83
2021/12/23 09:03:42;;;;;;;1999.90;999.90;;;;;;;;;;4996229;28;20034;-84
2021/12/23 09:06:07;;;;;;;1999.90;999.90;;;;;;;;;;4997133;28;20033;-85
2021/12/23 09:08:33;;;;;;;1999.90;999.90;;;;;;;;;;4997111;28;20391;-85
2021/12/23 09:10:58;;;;;;;1999.90;999.90;;;;;;;;;;4997068;28;20052;-84
2021/12/23 09:13:24;;;;;;;1999.90;999.90;;;;;;;;;;4997308;28;20064;-84
2021/12/23 09:15:51;;;;;;;1999.90;999.90;;;;;;;;;;4996803;28;20036;-84
2021/12/23 09:18:20;;;;;;;1999.90;999.90;;;;;;;;;;4998505;28;20484;-85
2021/12/23 09:20:46;;;;;;;1999.90;999.90;;;;;;;;;;5016907;28;20471;-84
2021/12/23 09:23:11;;;;;;;1999.90;999.90;;;;;;;;;;5000704;28;20033;-85
2021/12/23 09:25:38;;;;;;;1999.90;999.90;;;;;;;;;;4999339;28;20025;-85
2021/12/23 09:28:22;;;;;;;1999.90;999.90;;;;;;;;;;5013441;28;20088;-84
2021/12/23 09:33:32;;;;;;;1999.90;999.90;;;;;;;;;;5017367;28;20021;-84
2021/12/23 09:35:58;;;;;;;1999.90;999.90;;;;;;;;;;5016357;28;20033;-85
2021/12/23 09:38:27;;;;;;;1999.90;999.90;;;;;;;;;;5000168;28;20040;-85
2021/12/23 09:41:03;;;;;;;1999.90;999.90;;;;;;;;;;5017149;28;20034;-84
2021/12/23 09:43:30;;;;;;;1999.90;999.90;;;;;;;;;;5000690;28;20048;-85
2021/12/23 09:45:55;;;;;;;1999.90;999.90;;;;;;;;;;5016546;28;20084;-86
2021/12/23 09:48:21;;;;;;;1999.90;999.90;;;;;;;;;;4983834;28;20028;-84
2021/12/23 09:50:47;;;;;;;1999.90;999.90;;;;;;;;;;5015777;28;20029;-84
2021/12/23 09:53:19;;;;;;;1999.90;999.90;;;;;;;;;;4984017;28;20502;-84
2021/12/23 09:55:44;;;;;;;1999.90;999.90;;;;;;;;;;4983892;28;20032;-84
2021/12/23 09:58:10;;;;;;;1999.90;999.90;;;;;;;;;;4983742;28;20137;-83
2021/12/23 10:00:37;;;;;;;1999.90;999.90;;;;;;;;;;4983741;28;20160;-84
2021/12/23 10:03:03;;;;;;;1999.90;999.90;;;;;;;;;;4983631;28;20052;-83
2021/12/23 10:05:30;;;;;;;1999.90;999.90;;;;;;;;;;4999490;28;20483;-84
2021/12/23 10:07:56;;;;;;;1999.90;999.90;;;;;;;;;;5000341;28;20026;-83
2021/12/23 10:10:28;;;;;;;1999.90;999.90;;;;;;;;;;4980674;28;20113;-84
2021/12/23 10:32:26;;;;;;;1999.90;999.90;;;;;;;;;;5032012;28;20458;-85
2021/12/23 10:37:24;;;;;;;1999.90;999.90;;;;;;;;;;4997299;28;20026;-85
2021/12/23 10:40:06;;;;;;;1999.90;999.90;;;;;;;;;;4979970;28;20042;-85
2021/12/23 10:42:33;;;;;;;1999.90;999.90;;;;;;;;;;4996113;28;20030;-85
2021/12/23 10:45:03;;;;;;;1999.90;999.90;;;;;;;;;;4979713;28;20503;-84
2021/12/23 10:47:57;;;;;;;1999.90;999.90;;;;;;;;;;4980097;28;20084;-85
2021/12/23 10:50:31;;;;;;;1999.90;999.90;;;;;;;;;;5012027;28;20041;-84
2021/12/23 10:53:04;;;;;;;1999.90;999.90;;;;;;;;;;5000026;28;20032;-84
2021/12/23 10:58:16;;;;;;;1999.90;999.90;;;;;;;;;;5017721;28;20041;-85
2021/12/23 11:00:46;;;;;;;1999.90;999.90;;;;;;;;;;4982494;28;20036;-85
2021/12/23 11:03:45;;;;;;;1999.90;999.90;;;;;;;;;;4985159;28;20033;-84
2021/12/23 11:06:26;;;;;;;1516.10;751.28;;;;;;;;;;5011261;28;20038;-83
2021/12/23 11:09:00;;;;;;;1999.90;999.90;;;;;;;;;;5010249;28;20025;-86
2021/12/23 11:36:21;;;;;;;1999.90;999.90;;;;;;;;;;5003472;28;20116;-85
2021/12/23 11:41:33;;;;;;;1999.90;999.90;;;;;;;;;;5030433;28;20458;-85
2021/12/23 11:44:00;;;;;;;1999.90;999.90;;;;;;;;;;5000354;28;20034;-85
2021/12/23 11:46:41;;;;;;;1999.90;999.90;;;;;;;;;;4997206;28;20034;-83
2021/12/23 11:49:07;;;;;;;1999.90;999.90;;;;;;;;;;5015112;28;20033;-85
2021/12/23 11:51:43;;;;;;;1999.90;999.90;;;;;;;;;;4998288;28;20037;-84
2021/12/23 11:54:10;;;;;;;1999.90;999.90;;;;;;;;;;5000500;28;20109;-83
2021/12/23 11:56:36;;;;;;;1999.90;999.90;;;;;;;;;;4981720;28;20074;-83
2021/12/23 11:59:03;;;;;;;1999.90;999.90;;;;;;;;;;4981485;28;20099;-84
2021/12/23 12:01:30;;;;;;;1999.90;999.90;;;;;;;;;;5013152;28;20124;-84
2021/12/23 12:04:06;;;;;;;1999.90;999.90;;;;;;;;;;4994333;28;20068;-84
2021/12/23 12:06:40;;;;;;;1999.90;999.90;;;;;;;;;;4978606;28;20025;-84
2021/12/23 12:09:22;;;;;;;1999.90;999.90;;;;;;;;;;5010989;28;20045;-82
2021/12/23 12:12:00;;;;;;;1999.90;999.90;;;;;;;;;;4978591;28;20484;-84
2021/12/23 12:14:41;;;;;;;1999.90;999.90;;;;;;;;;;4994031;28;20303;-83
2021/12/23 12:19:57;;;;;;;1999.90;999.90;;;;;;;;;;5016354;28;20781;-83
2021/12/23 12:22:47;;;;;;;1999.90;999.90;;;;;;;;;;5027955;28;20049;-84
2021/12/23 12:25:40;;;;;;;1999.90;999.90;;;;;;;;;;5013296;28;20041;-83
2021/12/23 12:28:05;;;;;;;1999.90;999.90;;;;;;;;;;5022579;28;20045;-84
2021/12/23 12:30:37;;;;;;;1999.90;999.90;;;;;;;;;;4993824;28;20030;-85
2021/12/23 12:33:04;;;;;;;1999.90;999.90;;;;;;;;;;5026725;28;20049;-83
2021/12/23 12:35:29;;;;;;;1999.90;999.90;;;;;;;;;;4995349;28;20489;-83
2021/12/23 12:37:55;;;;;;;1999.90;999.90;;;;;;;;;;5044355;28;20094;-84
2021/12/23 12:40:20;;;;;;;1999.90;999.90;;;;;;;;;;5007303;28;20562;-84
2021/12/23 12:42:48;;;;;;;1119.72;511.20;;;;;;;;;;4993363;28;20034;-81
2021/12/23 12:45:23;;;;;;;1999.90;999.90;;;;;;;;;;4977512;28;20026;-84
2021/12/23 12:47:55;;;;;;;1999.90;999.90;;;;;;;;;;4980053;28;20468;-84
2021/12/23 12:50:22;;;;;;;1999.90;999.90;;;;;;;;;;4992725;28;20045;-83
2021/12/23 12:52:48;;;;;;;1999.90;999.90;;;;;;;;;;5014993;28;20555;-84
2021/12/23 12:55:17;;;;;;;1999.90;999.90;;;;;;;;;;5033783;28;20502;-84
2021/12/23 12:57:48;;;;;;;1999.90;999.90;;;;;;;;;;5016941;28;20064;-84
2021/12/23 13:00:22;;;;;;;1999.90;999.90;;;;;;;;;;5013919;28;20066;-84
2021/12/23 13:02:50;;;;;;;1999.90;999.90;;;;;;;;;;5021828;28;20044;-84
2021/12/23 13:05:16;;;;;;;1999.90;999.90;;;;;;;;;;4997623;28;20037;-84
2021/12/23 13:07:42;;;;;;;1999.90;999.90;;;;;;;;;;4997343;28;20038;-83
2021/12/23 13:10:14;;;;;;;1999.90;999.90;;;;;;;;;;4997523;28;20037;-81
2021/12/23 13:12:51;;;;;;;1999.90;999.90;;;;;;;;;;5013600;28;20030;-84
2021/12/23 13:15:35;;;;;;;1999.90;999.90;;;;;;;;;;5004455;28;20021;-84
2021/12/23 13:18:04;;;;;;;1999.90;999.90;;;;;;;;;;5016596;28;20487;-84
2021/12/23 13:20:45;;;;;;;1647.82;766.47;;;;;;;;;;5016882;28;20120;-84
2021/12/23 13:23:12;;;;;;;1999.90;999.90;;;;;;;;;;5000934;28;20029;-84
2021/12/23 13:26:01;;;;;;;1999.90;999.90;;;;;;;;;;5016670;28;20042;-84
2021/12/23 13:28:40;;;;;;;1999.90;999.90;;;;;;;;;;5016218;28;20380;-84
2021/12/23 13:31:16;;;;;;;1603.72;766.58;;;;;;;;;;5004722;28;20400;-83
2021/12/23 13:33:43;;;;;;;1999.90;999.90;;;;;;;;;;5041650;28;20038;-82
2021/12/23 13:36:22;;;;;;;1999.90;999.90;;;;;;;;;;4996430;28;20112;-83
2021/12/23 13:38:52;;;;;;;1999.90;999.90;;;;;;;;;;5022636;28;20038;-85
2021/12/23 13:41:28;;;;;;;1999.90;999.90;;;;;;;;;;4998310;28;20034;-84
2021/12/23 13:44:13;;;;;;;1999.90;999.90;;;;;;;;;;4983411;28;20033;-84
2021/12/23 13:46:40;;;;;;;1563.00;759.53;;;;;;;;;;5000281;28;20116;-84
2021/12/23 13:49:05;;;;;;;1999.90;999.90;;;;;;;;;;5016095;28;20033;-84
2021/12/23 13:51:34;;;;;;;1999.90;999.90;;;;;;;;;;5015408;28;20045;-85
2021/12/23 13:54:10;;;;;;;1999.90;999.90;;;;;;;;;;4997101;28;20030;-84
2021/12/23 13:56:36;;;;;;;1999.90;999.90;;;;;;;;;;4988856;28;20063;-85
2021/12/23 13:59:12;;;;;;;1999.90;999.90;;;;;;;;;;5015672;28;20046;-81
2021/12/23 14:02:01;;;;;;;1999.90;999.90;;;;;;;;;;5016203;28;20118;-81
2021/12/23 14:04:50;;;;;;;1999.90;999.90;;;;;;;;;;5015010;28;20037;-83
2021/12/23 14:07:27;;;;;;;1999.90;999.90;;;;;;;;;;4996044;28;20080;-82
2021/12/23 14:10:00;;;;;;;1999.90;999.90;;;;;;;;;;4980460;28;20041;-83
2021/12/23 14:12:42;;;;;;;1999.90;999.90;;;;;;;;;;4996445;28;20030;-83
2021/12/23 14:15:11;;;;;;;1999.90;999.90;;;;;;;;;;5012710;28;20033;-84
2021/12/23 14:17:41;;;;;;;1999.90;999.90;;;;;;;;;;4996041;28;20044;-83
2021/12/23 14:23:14;;;;;;;1999.90;999.90;;;;;;;;;;5012736;28;20400;-84
2021/12/23 14:25:40;;;;;;;1999.90;999.90;;;;;;;;;;4997942;28;20129;-83
2021/12/23 14:28:07;;;;;;;1999.90;999.90;;;;;;;;;;5015412;28;20521;-83
2021/12/23 14:30:40;;;;;;;1999.90;999.90;;;;;;;;;;4999242;28;20566;-83
2021/12/23 14:33:08;;;;;;;1999.90;999.90;;;;;;;;;;4999667;28;20092;-83
2021/12/23 14:35:33;;;;;;;1999.90;999.90;;;;;;;;;;4995922;28;20121;-86
2021/12/23 14:37:59;;;;;;;1999.90;999.90;;;;;;;;;;4979775;28;20032;-83
2021/12/23 14:40:25;;;;;;;1999.90;999.90;;;;;;;;;;4963279;28;20025;-84
2021/12/23 14:43:00;;;;;;;1999.90;999.90;;;;;;;;;;4963615;28;20556;-83
2021/12/23 14:45:27;;;;;;;1999.90;999.90;;;;;;;;;;4963631;28;20041;-84
2021/12/23 14:48:11;;;;;;;1999.90;999.90;;;;;;;;;;4963840;28;20550;-84
2021/12/23 14:50:48;;;;;;;1999.90;999.90;;;;;;;;;;4981594;28;20052;-84
2021/12/23 14:53:21;;;;;;;1999.90;999.90;;;;;;;;;;4982384;28;20041;-83